Time;durP1;ratioP1;P1;durP2;ratioP2;P2;SDS_P1;SDS_P2;PMS_P1;PMS_P2;Temp;Humidity;BMP_temperature;BMP_pressure;BME280_temperature;BME280_humidity;BME280_pressure;Samples;Min_cycle;Max_cycle;Signal;HPM_P1;HPM_P2
2021/12/13 00:01:43;;;;;;;10.73;9.63;;;;;;;3.76;100.00;100964.84;5105098;28;20036;-72
2021/12/13 00:04:28;;;;;;;9.63;8.63;;;;;;;3.72;100.00;100967.81;5102058;28;20437;-72
2021/12/13 00:07:01;;;;;;;9.65;8.75;;;;;;;3.63;100.00;100979.03;5107209;28;20039;-70
2021/12/13 00:09:30;;;;;;;11.10;9.13;;;;;;;3.55;100.00;100980.47;5110512;28;20035;-71
2021/12/13 00:12:00;;;;;;;9.93;9.02;;;;;;;3.52;100.00;100970.19;5111474;28;20081;-69
2021/12/13 00:14:33;;;;;;;11.23;9.75;;;;;;;3.50;100.00;100979.97;5116187;28;20028;-70
2021/12/13 00:17:01;;;;;;;10.00;9.00;;;;;;;3.52;100.00;100993.78;5107163;28;20034;-70
2021/12/13 00:19:37;;;;;;;11.25;9.95;;;;;;;3.46;100.00;100993.47;5115300;28;20144;-71
2021/12/13 00:22:09;;;;;;;11.30;9.68;;;;;;;3.50;100.00;101003.56;5116395;28;20027;-70
2021/12/13 00:24:40;;;;;;;13.52;9.52;;;;;;;3.41;100.00;101000.84;5101555;28;20036;-70
2021/12/13 00:27:11;;;;;;;11.63;9.73;;;;;;;3.40;100.00;101004.41;5097394;28;20044;-70
2021/12/13 00:30:16;;;;;;;10.43;9.07;;;;;;;3.40;100.00;101013.13;5113313;28;20040;-70
2021/12/13 00:32:56;;;;;;;9.63;8.73;;;;;;;3.32;100.00;101008.44;5101920;28;20047;-70
2021/12/13 00:35:26;;;;;;;9.38;8.48;;;;;;;3.31;100.00;101000.72;5115992;28;20540;-70
2021/12/13 00:37:58;;;;;;;10.75;8.65;;;;;;;3.25;100.00;100999.38;5112402;28;20036;-72
2021/12/13 00:40:28;;;;;;;10.18;9.18;;;;;;;3.18;100.00;100997.34;5109028;28;20031;-72
2021/12/13 00:43:00;;;;;;;9.63;8.68;;;;;;;3.21;100.00;100994.47;5110715;28;20387;-70
2021/12/13 00:45:31;;;;;;;10.18;8.93;;;;;;;3.20;100.00;100983.16;5110989;28;20038;-72
2021/12/13 00:48:01;;;;;;;10.23;9.10;;;;;;;3.17;100.00;100990.44;5111640;28;20498;-71
2021/12/13 00:50:37;;;;;;;10.38;9.38;;;;;;;3.13;100.00;100992.44;5113233;28;20023;-71
2021/12/13 00:53:03;;;;;;;13.55;9.23;;;;;;;3.08;100.00;100986.69;5110173;28;20027;-71
2021/12/13 00:55:32;;;;;;;9.73;8.82;;;;;;;3.02;100.00;100980.13;5115809;28;20061;-71
2021/12/13 00:58:14;;;;;;;10.80;9.07;;;;;;;3.08;100.00;100988.47;5105396;28;20082;-71
2021/12/13 01:00:56;;;;;;;11.38;9.65;;;;;;;3.00;100.00;100984.63;5100655;28;20024;-70
2021/12/13 01:03:40;;;;;;;10.93;8.98;;;;;;;2.91;100.00;100982.72;5113833;28;20075;-71
2021/12/13 01:06:24;;;;;;;13.38;9.77;;;;;;;2.94;100.00;100985.13;5103145;28;20027;-71
2021/12/13 01:09:28;;;;;;;12.20;9.98;;;;;;;2.99;100.00;100987.38;5115286;28;20027;-72
2021/12/13 01:11:57;;;;;;;11.85;9.88;;;;;;;3.02;100.00;100977.53;5097883;28;20057;-70
2021/12/13 01:14:38;;;;;;;15.35;9.88;;;;;;;3.02;100.00;100974.06;5098232;28;20016;-71
2021/12/13 01:17:26;;;;;;;11.15;8.65;;;;;;;3.00;100.00;100974.16;5111560;28;20386;-71
2021/12/13 01:20:00;;;;;;;11.18;9.52;;;;;;;3.02;100.00;100974.06;5108165;28;20024;-72
2021/12/13 01:25:37;;;;;;;10.88;9.38;;;;;;;2.90;100.00;100969.72;5114787;28;20038;-73
2021/12/13 01:28:29;;;;;;;12.25;10.25;;;;;;;2.82;100.00;100966.84;5113713;27;20028;-72
2021/12/13 01:31:00;;;;;;;12.32;10.25;;;;;;;2.83;100.00;100976.38;5110377;28;20063;-71
2021/12/13 01:33:28;;;;;;;11.40;10.25;;;;;;;2.84;100.00;100980.66;5112393;28;20040;-72
2021/12/13 01:35:56;;;;;;;14.15;10.50;;;;;;;2.80;100.00;100980.06;5114886;28;20028;-71
2021/12/13 01:38:35;;;;;;;13.75;10.90;;;;;;;2.88;100.00;100987.34;5112604;28;20140;-71
2021/12/13 01:41:15;;;;;;;9.65;8.68;;;;;;;2.81;100.00;100986.13;5113841;28;20046;-70
2021/12/13 01:43:48;;;;;;;13.32;10.82;;;;;;;2.80;100.00;100987.94;5101481;28;20015;-69
2021/12/13 01:46:15;;;;;;;14.27;10.30;;;;;;;2.67;100.00;100981.91;5110268;28;20526;-71
2021/12/13 01:48:43;;;;;;;15.38;9.70;;;;;;;2.80;100.00;100987.09;5104036;28;20122;-69
2021/12/13 01:51:12;;;;;;;13.80;10.35;;;;;;;2.85;100.00;100998.88;5111573;28;20356;-70
2021/12/13 01:53:47;;;;;;;13.93;10.60;;;;;;;2.93;100.00;100995.69;5113340;28;20505;-70
2021/12/13 01:56:38;;;;;;;10.80;9.20;;;;;;;2.96;100.00;100998.94;5112574;28;20394;-72
2021/12/13 02:01:56;;;;;;;12.07;10.70;;;;;;;2.88;100.00;100989.97;5108697;28;20118;-71
2021/12/13 02:04:23;;;;;;;12.02;9.80;;;;;;;2.83;100.00;101002.56;5112866;28;20049;-72
2021/12/13 02:06:51;;;;;;;14.23;10.18;;;;;;;2.99;100.00;100997.88;5111281;28;20118;-72
2021/12/13 02:09:25;;;;;;;11.43;10.10;;;;;;;3.01;100.00;100999.44;5113197;28;20164;-72
2021/12/13 02:11:55;;;;;;;13.15;10.30;;;;;;;3.02;100.00;101005.50;5111507;28;20027;-72
2021/12/13 02:14:27;;;;;;;13.07;9.43;;;;;;;2.97;100.00;101005.84;5113329;28;20031;-70
2021/12/13 02:19:46;;;;;;;11.38;9.95;;;;;;;2.84;100.00;100997.22;5102509;28;20028;-72
2021/12/13 02:22:31;;;;;;;11.57;10.32;;;;;;;2.85;100.00;101011.16;5110927;28;20523;-72
2021/12/13 02:25:01;;;;;;;10.77;9.38;;;;;;;2.75;100.00;100987.41;5106081;28;20055;-71
2021/12/13 02:27:31;;;;;;;11.65;10.40;;;;;;;2.77;100.00;100996.81;5111391;28;20141;-71
2021/12/13 02:30:00;;;;;;;11.50;9.93;;;;;;;2.61;100.00;100987.59;5109788;28;20089;-71
2021/12/13 02:32:28;;;;;;;9.88;8.85;;;;;;;2.64;100.00;100987.34;5107299;28;20023;-71
2021/12/13 02:34:57;;;;;;;10.20;9.15;;;;;;;2.57;100.00;100989.63;5113016;28;20028;-70
2021/12/13 02:37:26;;;;;;;10.45;9.38;;;;;;;2.55;100.00;100995.91;5112676;28;20028;-73
2021/12/13 02:39:56;;;;;;;10.38;9.32;;;;;;;2.55;100.00;100998.50;5109324;28;20584;-71
2021/12/13 02:42:23;;;;;;;13.90;10.00;;;;;;;2.49;100.00;100990.16;5095312;28;20517;-70
2021/12/13 02:44:58;;;;;;;9.55;8.55;;;;;;;2.56;100.00;100994.94;5103188;28;20446;-72
2021/12/13 02:47:30;;;;;;;11.25;9.68;;;;;;;2.55;100.00;100995.91;5107502;28;20408;-73
2021/12/13 02:49:56;;;;;;;13.25;9.73;;;;;;;2.54;100.00;101005.53;5111830;28;20027;-71
2021/12/13 02:52:25;;;;;;;12.05;9.57;;;;;;;2.44;100.00;100994.06;5094735;28;20108;-71
2021/12/13 02:54:57;;;;;;;11.50;9.45;;;;;;;2.45;100.00;101000.97;5096111;28;20035;-72
2021/12/13 02:57:30;;;;;;;11.15;9.13;;;;;;;2.47;100.00;101010.38;5112057;28;20031;-70
2021/12/13 03:00:03;;;;;;;10.80;9.15;;;;;;;2.40;100.00;101011.75;5100714;28;20028;-69
2021/12/13 03:02:40;;;;;;;12.98;9.63;;;;;;;2.28;100.00;101002.19;5106036;28;20403;-71
2021/12/13 03:05:14;;;;;;;10.00;9.05;;;;;;;2.29;100.00;101010.88;5100544;28;20028;-70
2021/12/13 03:07:43;;;;;;;9.50;8.63;;;;;;;2.21;100.00;101022.72;5111943;28;20047;-73
2021/12/13 03:10:17;;;;;;;8.70;7.88;;;;;;;2.21;100.00;101029.75;5113293;28;20020;-72
2021/12/13 03:12:43;;;;;;;9.98;9.07;;;;;;;2.18;100.00;101019.47;5104138;28;20414;-70
2021/12/13 03:15:14;;;;;;;12.30;9.25;;;;;;;1.75;100.00;100951.03;5103108;28;20035;-72
2021/12/13 03:18:15;;;;;;;12.32;9.57;;;;;;;2.13;100.00;101030.28;5101564;28;20046;-70
2021/12/13 03:21:01;;;;;;;12.55;10.10;;;;;;;2.12;100.00;101023.34;5100939;28;20529;-73
2021/12/13 03:23:45;;;;;;;9.32;8.43;;;;;;;2.21;100.00;101040.22;5110168;28;20054;-71
2021/12/13 03:26:23;;;;;;;9.93;8.82;;;;;;;2.15;100.00;101054.56;5109817;28;20016;-72
2021/12/13 03:29:00;;;;;;;10.45;9.32;;;;;;;2.19;100.00;101055.16;5093879;28;20043;-71
2021/12/13 03:31:34;;;;;;;10.23;9.18;;;;;;;2.21;100.00;101063.78;5097083;28;20033;-72
2021/12/13 03:34:05;;;;;;;11.02;9.95;;;;;;;2.25;100.00;101070.44;5105447;28;20063;-71
2021/12/13 03:36:36;;;;;;;12.00;8.80;;;;;;;2.14;100.00;101068.59;5109520;28;20480;-69
2021/12/13 03:39:06;;;;;;;13.52;9.50;;;;;;;2.06;100.00;101063.06;5112781;28;20040;-70
2021/12/13 03:41:33;;;;;;;10.48;9.38;;;;;;;2.13;100.00;101074.78;5108696;28;20028;-70
2021/12/13 03:44:05;;;;;;;15.98;9.57;;;;;;;2.07;100.00;101074.38;5112888;28;20060;-71
2021/12/13 03:46:33;;;;;;;10.05;9.10;;;;;;;2.10;100.00;101077.59;5108889;28;20385;-71
2021/12/13 03:49:01;;;;;;;12.73;9.82;;;;;;;2.06;100.00;101085.78;5112199;28;20094;-71
2021/12/13 03:51:32;;;;;;;11.45;10.25;;;;;;;2.10;100.00;101084.63;5110225;28;20440;-71
2021/12/13 03:53:58;;;;;;;9.50;8.65;;;;;;;2.05;100.00;101078.84;5096584;28;20031;-72
2021/12/13 03:56:30;;;;;;;11.73;9.57;;;;;;;2.04;100.00;101090.28;5098187;28;20028;-72
2021/12/13 03:59:03;;;;;;;12.77;9.88;;;;;;;2.13;100.00;101092.25;5112552;28;20045;-70
2021/12/13 04:01:42;;;;;;;12.50;10.77;;;;;;;2.13;100.00;101084.38;5108497;28;20081;-70
2021/12/13 04:04:12;;;;;;;12.48;9.45;;;;;;;2.14;100.00;101086.09;5106613;28;20132;-72
2021/12/13 04:06:54;;;;;;;10.15;9.15;;;;;;;2.09;100.00;101081.16;5109838;28;20027;-71
2021/12/13 04:09:23;;;;;;;12.82;9.23;;;;;;;2.17;100.00;101091.94;5111380;28;20039;-70
2021/12/13 04:11:53;;;;;;;11.40;9.77;;;;;;;2.15;100.00;101082.53;5110142;28;20379;-73
2021/12/13 04:14:26;;;;;;;9.32;8.38;;;;;;;2.09;100.00;101089.00;5111680;28;20027;-70
2021/12/13 04:17:20;;;;;;;10.93;9.10;;;;;;;2.08;100.00;101084.72;5105466;28;20067;-71
2021/12/13 04:19:57;;;;;;;12.43;10.07;;;;;;;2.07;100.00;101077.81;5110342;28;20031;-72
2021/12/13 04:22:28;;;;;;;12.80;9.45;;;;;;;2.01;100.00;101082.63;5108415;28;20032;-72
2021/12/13 04:25:01;;;;;;;11.82;9.57;;;;;;;2.13;100.00;101084.38;5110160;28;20032;-73
2021/12/13 04:27:39;;;;;;;9.97;8.97;;;;;;;2.02;100.00;101094.78;5111538;28;20031;-71
2021/12/13 04:30:25;;;;;;;10.95;9.70;;;;;;;2.04;100.00;101085.88;5110420;28;20077;-72
2021/12/13 04:32:56;;;;;;;13.88;10.45;;;;;;;1.99;100.00;101089.78;5103683;28;20382;-71
2021/12/13 04:35:23;;;;;;;13.88;10.43;;;;;;;1.96;100.00;101088.19;5111309;28;20043;-72
2021/12/13 04:37:53;;;;;;;12.30;9.82;;;;;;;1.90;100.00;101083.38;5094092;28;20580;-71
2021/12/13 04:40:24;;;;;;;13.73;11.82;;;;;;;2.02;100.00;101098.22;5106465;28;20032;-71
2021/12/13 04:42:54;;;;;;;11.20;9.77;;;;;;;1.93;100.00;101089.25;5103311;28;20117;-71
2021/12/13 04:45:23;;;;;;;13.10;10.10;;;;;;;2.24;100.00;101118.53;5107757;28;20020;-68
2021/12/13 04:47:54;;;;;;;15.80;10.50;;;;;;;2.30;100.00;101119.88;5108248;28;20012;-70
2021/12/13 04:50:26;;;;;;;14.60;12.00;;;;;;;2.18;100.00;101113.72;5108405;28;20046;-70
2021/12/13 04:52:53;;;;;;;13.73;10.07;;;;;;;2.14;100.00;101115.72;5095964;28;20061;-70
2021/12/13 04:55:26;;;;;;;15.18;11.18;;;;;;;2.12;100.00;101117.56;5113902;28;20042;-70
2021/12/13 04:57:55;;;;;;;14.18;11.60;;;;;;;2.06;100.00;101099.72;5115104;28;20028;-70
2021/12/13 05:00:24;;;;;;;13.68;10.77;;;;;;;2.03;100.00;101099.06;5108797;28;20170;-72
2021/12/13 05:02:57;;;;;;;13.32;11.43;;;;;;;2.04;100.00;101108.59;5105899;28;20509;-70
2021/12/13 05:05:23;;;;;;;13.82;11.45;;;;;;;2.06;100.00;101112.78;5113222;28;20035;-71
2021/12/13 05:07:51;;;;;;;15.00;10.90;;;;;;;2.07;100.00;101114.47;5105677;28;20020;-70
2021/12/13 05:10:17;;;;;;;15.15;12.57;;;;;;;2.10;100.00;101126.50;5109432;28;20048;-70
2021/12/13 05:13:06;;;;;;;13.73;11.55;;;;;;;2.13;100.00;101136.72;5102878;28;20027;-71
2021/12/13 05:15:33;;;;;;;14.35;12.00;;;;;;;2.13;100.00;101139.34;5101746;28;20110;-71
2021/12/13 05:18:01;;;;;;;18.25;11.98;;;;;;;2.11;100.00;101133.38;5108514;28;20034;-72
2021/12/13 05:20:32;;;;;;;17.05;11.43;;;;;;;2.08;100.00;101139.69;5102431;28;20430;-72
2021/12/13 05:23:07;;;;;;;17.88;12.00;;;;;;;2.07;100.00;101143.25;5106249;28;20040;-74
2021/12/13 05:25:42;;;;;;;16.25;11.80;;;;;;;2.00;100.00;101130.69;5095517;28;20077;-71
2021/12/13 05:28:15;;;;;;;20.70;13.23;;;;;;;2.02;100.00;101149.72;5097958;28;20185;-72
2021/12/13 05:30:58;;;;;;;20.03;13.43;;;;;;;2.07;100.00;101148.47;5105978;28;20126;-71
2021/12/13 05:33:27;;;;;;;18.67;12.93;;;;;;;2.03;100.00;101154.00;5105487;28;20035;-71
2021/12/13 05:35:56;;;;;;;14.15;11.20;;;;;;;2.05;100.00;101162.59;5102583;28;20111;-71
2021/12/13 05:38:43;;;;;;;19.58;14.73;;;;;;;2.09;100.00;101164.91;5106752;27;20027;-72
2021/12/13 05:41:18;;;;;;;17.98;12.75;;;;;;;2.08;100.00;101168.47;5105406;28;20051;-72
2021/12/13 05:43:49;;;;;;;18.90;12.50;;;;;;;2.06;100.00;101165.13;5105222;28;20023;-71
2021/12/13 05:46:23;;;;;;;24.75;14.10;;;;;;;2.10;100.00;101176.22;5106473;28;20071;-70
2021/12/13 05:48:48;;;;;;;27.00;15.25;;;;;;;2.01;100.00;101177.69;5103726;28;20038;-71
2021/12/13 05:51:19;;;;;;;18.00;12.20;;;;;;;2.13;100.00;101179.47;5103751;28;20102;-70
2021/12/13 05:53:52;;;;;;;17.30;11.55;;;;;;;1.95;100.00;101170.25;5098183;28;20205;-72
2021/12/13 05:56:19;;;;;;;18.73;12.85;;;;;;;2.01;100.00;101172.44;5103140;27;20042;-72
2021/12/13 05:58:55;;;;;;;23.65;13.55;;;;;;;2.08;100.00;101170.25;5096634;28;20043;-71
2021/12/13 06:01:25;;;;;;;20.80;12.68;;;;;;;2.12;100.00;101169.09;5100163;28;20088;-72
2021/12/13 06:04:35;;;;;;;23.70;13.13;;;;;;;2.02;100.00;101171.50;5105386;28;20059;-71
2021/12/13 06:07:10;;;;;;;21.45;13.85;;;;;;;2.02;100.00;101168.03;5070228;28;20502;-71
2021/12/13 06:10:06;;;;;;;23.60;13.82;;;;;;;2.02;100.00;101170.66;5098116;28;20384;-71
2021/12/13 06:12:48;;;;;;;24.63;15.02;;;;;;;1.88;100.00;101163.75;5097641;28;20057;-71
2021/12/13 06:15:29;;;;;;;21.08;15.30;;;;;;;1.96;100.00;101166.66;5098121;28;21372;-72
2021/12/13 06:18:11;;;;;;;21.50;13.88;;;;;;;2.02;100.00;101157.56;5110992;28;20028;-72
2021/12/13 06:21:06;;;;;;;23.27;14.70;;;;;;;2.01;100.00;101164.59;5116751;28;20032;-71
2021/12/13 06:23:33;;;;;;;;;;;;;;;1.90;100.00;101165.31;5100761;28;20135;-72
2021/12/13 06:26:01;;;;;;;24.20;15.40;;;;;;;1.95;100.00;101167.63;5110507;28;20018;-70
2021/12/13 06:28:33;;;;;;;30.50;17.20;;;;;;;1.93;100.00;101154.66;5114221;28;20218;-71
2021/12/13 06:31:08;;;;;;;25.48;13.60;;;;;;;1.94;100.00;101164.16;5101275;28;20023;-70
2021/12/13 06:33:51;;;;;;;;;;;;;;;1.98;100.00;101179.66;5113911;28;20019;-72
2021/12/13 06:36:33;;;;;;;32.85;17.20;;;;;;;2.00;100.00;101183.03;5112461;28;20332;-72
2021/12/13 06:39:14;;;;;;;38.85;18.98;;;;;;;1.98;100.00;101183.09;5098462;28;20043;-71
2021/12/13 06:41:43;;;;;;;31.30;17.02;;;;;;;1.98;100.00;101197.97;5112497;28;20028;-72
2021/12/13 06:44:08;;;;;;;33.22;17.02;;;;;;;2.13;100.00;101207.41;5102300;28;20078;-72
2021/12/13 06:47:01;;;;;;;29.38;16.80;;;;;;;2.10;100.00;101199.75;5107911;27;20445;-71
2021/12/13 06:49:48;;;;;;;34.10;18.08;;;;;;;2.01;100.00;101193.38;5097367;28;20035;-71
2021/12/13 06:52:13;;;;;;;35.05;18.17;;;;;;;2.05;100.00;101197.44;5111827;28;20028;-71
2021/12/13 06:54:43;;;;;;;37.40;19.13;;;;;;;2.00;100.00;101191.72;5113030;28;20509;-72
2021/12/13 06:57:35;;;;;;;38.05;19.15;;;;;;;2.07;100.00;101216.53;5110502;28;20063;-72
2021/12/13 07:00:37;;;;;;;44.72;20.02;;;;;;;1.99;100.00;101223.22;5111699;28;20098;-71
2021/12/13 07:03:20;;;;;;;35.40;16.95;;;;;;;2.01;100.00;101231.78;5097844;28;20514;-71
2021/12/13 07:05:57;;;;;;;39.40;19.80;;;;;;;1.98;100.00;101216.28;5101467;28;20081;-72
2021/12/13 07:08:32;;;;;;;37.25;18.60;;;;;;;2.00;100.00;101217.03;5100539;28;20442;-72
2021/12/13 07:11:02;;;;;;;36.30;18.95;;;;;;;2.02;100.00;101220.38;5092254;28;20540;-71
2021/12/13 07:13:39;;;;;;;36.55;18.98;;;;;;;2.02;100.00;101225.63;5106677;28;20059;-71
2021/12/13 07:16:25;;;;;;;41.38;19.27;;;;;;;1.97;100.00;101223.28;5108604;28;20554;-71
2021/12/13 07:19:06;;;;;;;42.22;19.20;;;;;;;2.04;100.00;101235.03;5098267;28;20040;-70
2021/12/13 07:21:33;;;;;;;35.60;19.30;;;;;;;2.06;100.00;101234.94;5106473;28;20387;-71
2021/12/13 07:24:09;;;;;;;39.15;18.00;;;;;;;1.87;100.00;101225.69;5097158;28;20054;-72
2021/12/13 07:26:49;;;;;;;45.53;20.73;;;;;;;2.08;100.00;101243.53;5103309;27;20092;-71
2021/12/13 07:29:28;;;;;;;42.33;19.42;;;;;;;2.12;100.00;101247.59;5102663;28;20034;-71
2021/12/13 07:32:17;;;;;;;41.75;20.67;;;;;;;1.99;100.00;101246.75;5107972;28;20046;-72
2021/12/13 07:34:54;;;;;;;42.55;19.83;;;;;;;2.02;100.00;101254.41;5098854;28;20051;-74
2021/12/13 07:37:51;;;;;;;42.08;20.35;;;;;;;1.99;100.00;101254.63;5086461;28;20036;-73
2021/12/13 07:40:37;;;;;;;44.78;20.52;;;;;;;1.88;100.00;101248.28;5101878;28;20552;-75
2021/12/13 07:43:21;;;;;;;41.05;19.40;;;;;;;1.88;100.00;101263.16;5099276;28;20055;-76
2021/12/13 07:45:58;;;;;;;43.27;20.33;;;;;;;1.99;100.00;101254.63;5091623;28;20118;-74
2021/12/13 07:48:34;;;;;;;40.72;19.73;;;;;;;1.91;100.00;101242.88;5087545;28;20304;-73
2021/12/13 07:51:15;;;;;;;41.03;20.70;;;;;;;2.07;100.00;101261.00;5098924;28;20024;-75
2021/12/13 07:54:11;;;;;;;29.63;17.20;;;;;;;2.00;100.00;101257.13;5099884;28;20516;-77
2021/12/13 07:56:36;;;;;;;49.10;22.08;;;;;;;2.10;100.00;101257.34;5090756;28;20130;-74
2021/12/13 07:59:16;;;;;;;45.40;21.13;;;;;;;2.00;100.00;101257.13;5093471;28;20028;-76
2021/12/13 08:01:47;;;;;;;38.47;20.70;;;;;;;2.04;100.00;101255.97;5085003;28;20402;-74
2021/12/13 08:04:17;;;;;;;42.50;18.95;;;;;;;1.90;100.00;101253.41;5101357;28;20591;-77
2021/12/13 08:06:57;;;;;;;33.80;18.10;;;;;;;1.93;100.00;101255.84;5098750;28;20060;-72
2021/12/13 08:09:26;;;;;;;57.70;23.45;;;;;;;1.93;100.00;101251.47;5100170;28;20031;-76
2021/12/13 08:12:18;;;;;;;46.03;21.13;;;;;;;2.03;100.00;101250.84;5091258;28;20024;-72
2021/12/13 08:18:34;;;;;;;44.70;23.20;;;;;;;2.13;100.00;101246.66;5102699;28;20089;-72
2021/12/13 08:21:08;;;;;;;43.25;21.27;;;;;;;2.10;100.00;101247.72;5090271;28;20032;-72
2021/12/13 08:23:42;;;;;;;41.15;20.27;;;;;;;1.94;100.00;101218.28;5102040;28;20024;-72
2021/12/13 08:26:11;;;;;;;42.58;20.52;;;;;;;2.22;100.00;101252.13;5098806;28;20032;-74
2021/12/13 08:28:42;;;;;;;41.72;19.45;;;;;;;2.08;100.00;101240.91;5094745;28;20027;-76
2021/12/13 08:31:18;;;;;;;46.50;21.55;;;;;;;2.19;100.00;101254.09;5100990;28;20027;-72
2021/12/13 08:33:48;;;;;;;38.67;19.20;;;;;;;2.21;100.00;101255.69;5097566;28;20059;-71
2021/12/13 08:36:17;;;;;;;42.60;19.95;;;;;;;2.19;100.00;101260.16;5102866;28;20020;-74
2021/12/13 08:38:48;;;;;;;39.45;19.10;;;;;;;1.96;100.00;101250.41;5097866;28;20063;-73
2021/12/13 08:41:16;;;;;;;46.25;22.90;;;;;;;2.05;100.00;101254.19;5093814;28;20035;-76
2021/12/13 08:44:00;;;;;;;33.72;19.38;;;;;;;1.91;100.00;101242.88;5097989;28;20078;-76
2021/12/13 08:46:43;;;;;;;45.40;21.38;;;;;;;1.97;100.00;101240.78;5096723;28;20059;-76
2021/12/13 08:49:37;;;;;;;42.07;19.57;;;;;;;1.92;100.00;101246.34;5096386;28;20147;-77
2021/12/13 08:52:26;;;;;;;46.47;20.37;;;;;;;1.89;100.00;101243.91;5102747;28;20023;-75
2021/12/13 08:55:10;;;;;;;37.15;18.23;;;;;;;2.00;100.00;101240.59;5090544;28;20580;-74
2021/12/13 08:57:35;;;;;;;40.83;20.00;;;;;;;1.94;100.00;101232.19;5096753;28;20577;-76
2021/12/13 09:00:17;;;;;;;38.67;18.85;;;;;;;1.89;100.00;101221.19;5099761;28;20094;-75
2021/12/13 09:02:57;;;;;;;43.22;21.27;;;;;;;2.05;100.00;101225.41;5111715;27;20382;-75
2021/12/13 09:05:36;;;;;;;47.83;21.00;;;;;;;2.15;100.00;101234.31;5102866;28;20130;-75
2021/12/13 09:08:10;;;;;;;45.20;23.42;;;;;;;1.51;100.00;101123.50;5092636;28;20486;-74
2021/12/13 09:10:58;;;;;;;43.50;20.52;;;;;;;2.06;100.00;101220.09;5099488;28;20054;-72
2021/12/13 09:14:13;;;;;;;40.17;18.45;;;;;;;2.02;100.00;101220.38;5091360;28;20058;-74
2021/12/13 09:17:03;;;;;;;46.78;19.80;;;;;;;2.18;100.00;101221.84;5052084;28;20525;-73
2021/12/13 09:19:36;;;;;;;38.28;18.73;;;;;;;2.22;100.00;101222.50;5104313;28;20042;-73
2021/12/13 09:22:11;;;;;;;35.08;19.25;;;;;;;2.06;100.00;101220.09;5098336;28;20016;-74
2021/12/13 09:24:39;;;;;;;43.72;19.55;;;;;;;2.22;100.00;101219.88;5102045;28;20035;-73
2021/12/13 09:27:16;;;;;;;37.55;19.73;;;;;;;2.25;100.00;101230.13;5095223;28;20070;-74
2021/12/13 09:30:12;;;;;;;36.35;17.67;;;;;;;2.14;100.00;101222.19;5094173;28;20950;-76
2021/12/13 09:32:45;;;;;;;50.58;21.60;;;;;;;2.10;100.00;101242.47;5090824;28;20056;-75
2021/12/13 09:35:23;;;;;;;33.38;16.40;;;;;;;2.19;100.00;101241.00;5102795;28;20398;-74
2021/12/13 09:37:50;;;;;;;38.25;20.40;;;;;;;2.20;100.00;101229.59;5104878;28;20035;-76
2021/12/13 09:40:18;;;;;;;41.08;20.38;;;;;;;2.25;100.00;101235.38;5102747;28;20036;-76
2021/12/13 09:42:54;;;;;;;39.28;19.15;;;;;;;2.33;100.00;101235.69;5102844;28;20031;-76
2021/12/13 09:45:37;;;;;;;44.05;20.30;;;;;;;2.41;100.00;101240.41;5099803;28;20359;-72
2021/12/13 09:48:25;;;;;;;55.28;20.55;;;;;;;2.31;100.00;101240.19;5098960;28;20028;-75
2021/12/13 09:50:56;;;;;;;41.30;19.30;;;;;;;2.41;100.00;101241.22;5105272;28;20378;-74
2021/12/13 09:53:25;;;;;;;45.05;21.13;;;;;;;1.64;100.00;101135.69;5104201;28;20432;-73
2021/12/13 09:55:53;;;;;;;36.55;18.42;;;;;;;2.31;100.00;101221.88;5102558;28;20016;-74
2021/12/13 09:58:41;;;;;;;38.85;19.58;;;;;;;2.33;100.00;101221.75;5100929;28;20052;-72
2021/12/13 10:01:13;;;;;;;37.25;17.70;;;;;;;2.31;100.00;101221.03;5102414;28;20034;-73
2021/12/13 10:03:54;;;;;;;48.50;19.77;;;;;;;2.29;100.00;101230.78;5107793;28;20093;-73
2021/12/13 10:06:30;;;;;;;43.63;18.73;;;;;;;2.33;100.00;101235.69;5105469;28;20089;-74
2021/12/13 10:09:10;;;;;;;34.50;18.17;;;;;;;2.25;100.00;101234.53;5097019;28;20054;-74
2021/12/13 10:11:51;;;;;;;39.45;18.83;;;;;;;2.07;100.00;101205.22;5112137;28;20030;-76
2021/12/13 10:14:21;;;;;;;39.70;17.67;;;;;;;2.20;100.00;101225.22;5103840;28;20089;-73
2021/12/13 10:16:49;;;;;;;41.22;19.88;;;;;;;2.24;100.00;101214.53;5095691;28;20020;-75
2021/12/13 10:19:24;;;;;;;39.50;19.08;;;;;;;2.25;100.00;101208.34;5094750;28;20031;-73
2021/12/13 10:21:50;;;;;;;42.60;19.67;;;;;;;2.24;100.00;101217.16;5087589;28;20024;-73
2021/12/13 10:24:23;;;;;;;45.33;19.17;;;;;;;2.34;100.00;101218.19;5091232;28;20110;-74
2021/12/13 10:26:50;;;;;;;51.63;20.75;;;;;;;2.49;100.00;101220.59;5088508;28;20039;-74
2021/12/13 10:29:16;;;;;;;40.60;19.95;;;;;;;2.33;100.00;101219.97;5092389;28;20024;-72
2021/12/13 10:32:11;;;;;;;35.42;19.60;;;;;;;2.27;100.00;101220.38;5096837;28;20037;-72
2021/12/13 10:34:39;;;;;;;;;;;;;;;2.25;100.00;101208.34;5095989;28;20066;-72
2021/12/13 10:37:18;;;;;;;31.83;15.82;;;;;;;2.10;100.00;101199.75;5102598;28;19924;-72
2021/12/13 10:39:50;;;;;;;36.38;17.20;;;;;;;2.18;100.00;101207.94;5106259;28;20113;-71
2021/12/13 10:42:22;;;;;;;38.03;18.90;;;;;;;2.10;100.00;101205.84;5098935;28;20506;-72
2021/12/13 10:44:49;;;;;;;45.28;19.80;;;;;;;2.27;100.00;101207.28;5097075;28;20533;-72
2021/12/13 10:47:40;;;;;;;36.47;18.63;;;;;;;2.26;100.00;101213.47;5098695;28;20044;-73
2021/12/13 10:50:15;;;;;;;37.92;18.00;;;;;;;2.22;100.00;101210.25;5104177;28;20119;-72
2021/12/13 10:52:44;;;;;;;38.08;18.75;;;;;;;2.19;100.00;101207.00;5091935;28;20518;-72
2021/12/13 10:55:19;;;;;;;39.00;18.77;;;;;;;2.26;100.00;101217.88;5099868;28;20529;-71
2021/12/13 10:57:50;;;;;;;45.25;19.40;;;;;;;2.12;100.00;101224.03;5092441;28;20032;-71
2021/12/13 11:00:25;;;;;;;38.33;19.05;;;;;;;2.00;100.00;101235.34;5091621;28;20024;-75
2021/12/13 11:02:54;;;;;;;39.90;18.45;;;;;;;2.00;100.00;101235.34;5103260;28;20062;-73
2021/12/13 11:05:23;;;;;;;47.45;19.35;;;;;;;2.13;100.00;101233.56;5105966;28;20031;-72
2021/12/13 11:07:50;;;;;;;38.25;18.67;;;;;;;2.05;100.00;101225.41;5097283;28;20032;-74
2021/12/13 11:10:23;;;;;;;46.35;20.23;;;;;;;2.06;100.00;101222.69;5096432;28;20056;-74
2021/12/13 11:12:52;;;;;;;36.85;19.20;;;;;;;2.20;100.00;101233.09;5095419;28;20518;-76
2021/12/13 11:15:29;;;;;;;47.58;20.25;;;;;;;2.12;100.00;101235.34;5101229;28;20054;-75
2021/12/13 11:17:55;;;;;;;43.33;21.33;;;;;;;2.13;100.00;101223.09;5098056;28;20076;-77
2021/12/13 11:20:26;;;;;;;35.33;19.45;;;;;;;2.15;100.00;101221.25;5098383;28;20051;-79
2021/12/13 11:22:52;;;;;;;43.45;20.70;;;;;;;2.11;100.00;101214.53;5090960;28;20562;-75
2021/12/13 11:25:26;;;;;;;39.70;19.40;;;;;;;2.20;100.00;101234.84;5098921;28;20123;-77
2021/12/13 11:27:51;;;;;;;35.38;18.23;;;;;;;2.13;100.00;101229.19;5097727;28;20019;-75
2021/12/13 11:30:23;;;;;;;43.95;19.98;;;;;;;2.21;100.00;101233.91;5094198;28;20034;-76
2021/12/13 11:32:57;;;;;;;41.85;19.20;;;;;;;2.21;100.00;101239.16;5098985;28;20161;-74
2021/12/13 11:35:47;;;;;;;47.55;20.95;;;;;;;2.31;100.00;101242.81;5105396;28;20063;-76
2021/12/13 11:38:42;;;;;;;42.63;19.77;;;;;;;2.16;100.00;101234.22;5096936;28;20026;-78
2021/12/13 11:41:44;;;;;;;42.90;20.55;;;;;;;2.15;100.00;101245.63;5099954;28;20028;-76
2021/12/13 11:44:47;;;;;;;44.95;20.23;;;;;;;2.21;100.00;101239.16;5054407;28;20402;-77
2021/12/13 11:47:49;;;;;;;44.92;19.90;;;;;;;2.24;100.00;101241.56;5095625;28;20123;-77
2021/12/13 11:50:29;;;;;;;37.97;17.73;;;;;;;2.06;100.00;101234.94;5108778;28;20066;-75
2021/12/13 11:53:29;;;;;;;40.90;20.13;;;;;;;2.14;100.00;101245.75;5104363;28;20024;-77
2021/12/13 11:56:06;;;;;;;47.55;20.80;;;;;;;2.19;100.00;101247.09;5101250;28;20045;-77
2021/12/13 11:59:09;;;;;;;37.83;17.73;;;;;;;2.13;100.00;101241.41;5097105;28;20032;-77
2021/12/13 12:02:01;;;;;;;36.20;19.40;;;;;;;2.14;100.00;101243.97;5099060;28;20525;-74
2021/12/13 12:05:05;;;;;;;39.70;18.42;;;;;;;2.18;100.00;101244.56;5098622;28;20035;-77